Warning: Javascript must be enabled to use all the features on this page!


Page Loading - Please Wait...

* We've detected you're using a mobile device. Find our Next Generation Station Page here.
Click to hideNews Bulletins

Peak Streamflow for the Nation

USGS 01350180 SCHOHARIE CREEK AT NORTH BLENHEIM NY

Schoharie County, New York
Hydrologic Unit Code 02020005
Latitude  42°27'57", Longitude  74°27'44" NAD83
Drainage area 358  square miles
Gage datum 793.92 feet above NAVD88
Output formats
Table
Graph
Tab-separated file
peakfq (watstore) format
Reselect output format
Water
Year
Date Gage
Height
(feet)
Stream-
flow
(cfs)
1971 1971-05-13 6.753 5,2706
1972 1972-06-23 12.296 41,4006,9
1973 1973-06-30 10.77 15,4006
1974 1973-12-21 13.34 32,4006
1975 1974-12-08 11.96 21,6006
1976 1976-02-17 9.00 6,7306
1977 1977-03-14 11.47 17,1006
1978 1977-11-08 13.75 35,3006
1979 1979-03-25 11.37 16,7006
1980 1980-03-21 14.72 42,9006
1981 1981-02-21 8.98 7,3506
1982 1982-06-06 10.07 9,8106
1983 1983-04-25 11.00 12,2006
1984 1984-04-05 12.79 29,2006
1985 1985-03-12 3.20 4826
1986 1986-03-15 11.59 18,4006
1987 1987-04-04 16.70 64,2006
1988 1987-10-28 9.39 8,1606
1989 1989-05-11 9.89 9,6506
1990 1990-02-16 7.79 4,8706
1991 1990-11-10 11.04 14,4006
1992 1992-05-03 5.65 2,3306
1993 1993-04-17 11.56 17,1006
1994 1994-04-14 10.00 10,0006
1995 1995-01-21 6.73 3,4806
1996 1996-01-19 17.61 75,6006
1997 1996-11-09 11.04 19,4006
1998 1998-06-14 10.53 19,2006
1999 1999-09-17 11.55 22,1006,9
2000 2000-06-07 11.76 23,5006
2001 2001-04-13 9.29 9,5606
2002 2002-03-27 3.86 1,0306
2003 2003-03-21 9.09 8,7506
2004 2004-09-18 12.27 27,4006
2005 2005-04-03 14.78 51,7006
2006 2006-01-18 11.39 21,1006
2007 2007-04-16 12.09 26,8006
2008 2008-03-05 10.97 18,2006
2009 2009-06-21 7.66 5,6306
2010 2010-03-23 12.49 30,0006
2011 2011-08-28 22.00 119,0006,9
2012 2011-12-08 5.98 4,2106
2013 2013-06-14 8.67 7,5606
2014 2014-05-17 9.49 10,3006
2015 2015-04-10 6.76 4,2406
2016 2016-02-25 9.33 9,6806
2017 2017-04-07 8.93 8,1606
2018 2018-08-14 10.73 16,7006
2019 2019-04-15 9.82R 11,8006,R
2020 2020-05-01 9.47 9,5206
2021 2020-12-25 13.98 38,5006
2022 2021-10-26 12.94 29,8006
2023 2022-12-23 9.01 8,4306
?
  Peak Gage-Height Qualification Codes.
?
  Peak Streamflow Qualification Codes.